Time;durP1;ratioP1;P1;durP2;ratioP2;P2;SDS_P1;SDS_P2;PMS_P1;PMS_P2;Temp;Humidity;BMP_temperature;BMP_pressure;BME280_temperature;BME280_humidity;BME280_pressure;Samples;Min_cycle;Max_cycle;Signal;HPM_P1;HPM_P2
2021/09/28 00:01:21;;;;;;;1.27;0.85;;;14.00;51.60;;;;;;5010734;28;20045;-67
2021/09/28 00:03:52;;;;;;;1.70;0.70;;;14.00;51.70;;;;;;5016904;28;20041;-66
2021/09/28 00:06:20;;;;;;;0.98;0.68;;;13.90;52.90;;;;;;5032024;28;20556;-67
2021/09/28 00:08:48;;;;;;;3.42;0.80;;;14.00;53.00;;;;;;5030923;28;20056;-66
2021/09/28 00:11:16;;;;;;;1.73;0.82;;;13.70;51.90;;;;;;5030720;28;20439;-66
2021/09/28 00:13:44;;;;;;;1.58;0.70;;;13.60;48.50;;;;;;5030647;28;20064;-67
2021/09/28 00:16:19;;;;;;;1.10;0.60;;;13.60;46.60;;;;;;5030073;28;20045;-67
2021/09/28 00:18:48;;;;;;;1.00;0.65;;;13.70;46.40;;;;;;5037298;28;20047;-67
2021/09/28 00:21:16;;;;;;;1.10;0.52;;;13.60;44.20;;;;;;5036036;28;20048;-67
2021/09/28 00:23:47;;;;;;;2.63;0.88;;;13.60;43.30;;;;;;5027915;28;20538;-67
2021/09/28 00:26:16;;;;;;;1.23;0.60;;;13.60;36.10;;;;;;5033254;28;20052;-67
2021/09/28 00:28:45;;;;;;;2.60;0.63;;;13.50;33.70;;;;;;5034916;28;20044;-67
2021/09/28 00:31:13;;;;;;;3.42;0.90;;;13.50;31.60;;;;;;5033246;28;20519;-67
2021/09/28 00:33:43;;;;;;;2.45;0.82;;;13.50;30.50;;;;;;5031447;28;20043;-67
2021/09/28 00:36:11;;;;;;;2.47;0.70;;;13.40;30.30;;;;;;5034949;28;20088;-67
2021/09/28 00:38:39;;;;;;;1.27;0.70;;;13.40;31.40;;;;;;5033490;28;20045;-67
2021/09/28 00:41:10;;;;;;;2.88;1.05;;;13.40;31.50;;;;;;5034715;28;20519;-66
2021/09/28 00:43:45;;;;;;;2.45;0.88;;;13.40;33.10;;;;;;5028973;28;20682;-67
2021/09/28 00:46:15;;;;;;;3.20;1.00;;;13.40;34.90;;;;;;5035154;28;20501;-67
2021/09/28 00:48:47;;;;;;;1.90;0.80;;;13.50;35.30;;;;;;5033965;28;20052;-67
2021/09/28 00:51:17;;;;;;;2.95;1.00;;;13.40;35.40;;;;;;5034637;28;20057;-67
2021/09/28 00:53:52;;;;;;;3.97;1.23;;;13.50;35.90;;;;;;5032685;28;20500;-67
2021/09/28 00:56:24;;;;;;;3.75;0.90;;;13.40;34.90;;;;;;5018508;28;20041;-67
2021/09/28 00:58:53;;;;;;;3.67;1.10;;;13.40;39.10;;;;;;5031620;28;20055;-67
2021/09/28 01:01:21;;;;;;;3.88;0.90;;;13.40;36.20;;;;;;5038098;28;20044;-67
2021/09/28 01:03:53;;;;;;;2.72;0.77;;;13.30;39.40;;;;;;5032542;28;20428;-66
2021/09/28 01:06:22;;;;;;;4.85;1.33;;;13.30;38.10;;;;;;5033751;28;20102;-67
2021/09/28 01:08:50;;;;;;;3.78;1.02;;;13.30;36.20;;;;;;5031296;28;20067;-66
2021/09/28 01:11:21;;;;;;;3.72;1.00;;;13.50;36.60;;;;;;5026173;28;20206;-67
2021/09/28 01:13:51;;;;;;;4.75;1.10;;;13.40;35.30;;;;;;5034612;28;20571;-67
2021/09/28 01:16:21;;;;;;;3.78;1.15;;;13.40;37.10;;;;;;5025327;28;20068;-67
2021/09/28 01:18:51;;;;;;;5.18;1.15;;;13.40;34.20;;;;;;5040561;28;20056;-67
2021/09/28 01:21:30;;;;;;;2.40;0.88;;;13.40;35.70;;;;;;5046083;28;20060;-66
2021/09/28 01:24:02;;;;;;;4.13;1.60;;;13.40;34.70;;;;;;5042881;28;20131;-66
2021/09/28 01:26:33;;;;;;;9.40;1.13;;;13.30;35.70;;;;;;5047177;28;20118;-66
2021/09/28 01:29:03;;;;;;;1.75;0.70;;;13.50;35.10;;;;;;5043209;28;20045;-66
2021/09/28 01:31:31;;;;;;;3.90;0.80;;;13.40;35.90;;;;;;5044882;28;20157;-66
2021/09/28 01:33:59;;;;;;;3.75;1.00;;;13.30;35.10;;;;;;5046758;28;20140;-66
2021/09/28 01:36:28;;;;;;;5.13;1.25;;;13.30;37.20;;;;;;5042695;28;20043;-66
2021/09/28 01:38:58;;;;;;;3.20;1.17;;;13.30;39.00;;;;;;5046582;28;20595;-66
2021/09/28 01:41:30;;;;;;;2.33;0.90;;;13.30;40.00;;;;;;5047114;28;20530;-66
2021/09/28 01:44:06;;;;;;;3.47;1.10;;;13.20;39.70;;;;;;5042571;28;20075;-66
2021/09/28 01:46:38;;;;;;;4.47;0.90;;;13.20;39.20;;;;;;5038716;28;20540;-67
2021/09/28 01:49:07;;;;;;;2.75;1.10;;;13.30;40.20;;;;;;5023253;28;20842;-67
2021/09/28 01:51:41;;;;;;;2.65;1.20;;;13.40;40.50;;;;;;5051661;28;20048;-67
2021/09/28 01:54:12;;;;;;;3.95;1.17;;;13.50;39.20;;;;;;5038930;28;20047;-66
2021/09/28 01:56:40;;;;;;;4.55;0.90;;;13.40;38.60;;;;;;5037473;28;20046;-66
2021/09/28 01:59:09;;;;;;;2.63;1.08;;;13.40;37.30;;;;;;5044773;28;20299;-67
2021/09/28 02:01:41;;;;;;;4.05;1.00;;;13.50;36.80;;;;;;5045877;28;20045;-67
2021/09/28 02:04:09;;;;;;;5.60;1.13;;;13.40;35.70;;;;;;5042629;28;20131;-66
2021/09/28 02:06:39;;;;;;;4.30;1.20;;;13.50;35.90;;;;;;5041654;28;20443;-66
2021/09/28 02:09:09;;;;;;;2.10;0.88;;;13.40;35.40;;;;;;5049788;28;20049;-66
2021/09/28 02:11:39;;;;;;;5.63;1.02;;;13.40;35.50;;;;;;5038391;28;20045;-67
2021/09/28 02:14:09;;;;;;;3.40;1.33;;;13.40;33.70;;;;;;5043580;28;20106;-66
2021/09/28 02:16:37;;;;;;;3.97;1.00;;;13.40;34.40;;;;;;5045031;28;20095;-67
2021/09/28 02:19:06;;;;;;;4.18;1.23;;;13.40;35.20;;;;;;5047491;28;20052;-66
2021/09/28 02:21:37;;;;;;;4.68;1.63;;;13.40;33.30;;;;;;5047045;28;20060;-67
2021/09/28 02:24:06;;;;;;;4.45;1.15;;;13.50;35.00;;;;;;5037167;28;20046;-66
2021/09/28 02:26:34;;;;;;;1.13;0.90;;;13.50;34.00;;;;;;5044601;28;20041;-66
2021/09/28 02:29:07;;;;;;;1.60;0.75;;;13.40;33.20;;;;;;5033579;28;20049;-66
2021/09/28 02:31:36;;;;;;;3.33;0.85;;;13.40;34.90;;;;;;5014016;28;20045;-66
2021/09/28 02:34:06;;;;;;;3.85;1.08;;;13.50;33.50;;;;;;5045091;28;20127;-67
2021/09/28 02:36:39;;;;;;;2.83;1.08;;;13.40;34.10;;;;;;5048478;28;20052;-67
2021/09/28 02:39:09;;;;;;;3.80;1.08;;;13.50;34.10;;;;;;5050722;28;20052;-66
2021/09/28 02:41:39;;;;;;;4.15;0.93;;;13.50;34.10;;;;;;5050302;28;20049;-67
2021/09/28 02:44:08;;;;;;;4.78;1.13;;;13.50;35.70;;;;;;5046888;28;20569;-66
2021/09/28 02:46:36;;;;;;;5.10;1.25;;;13.50;36.10;;;;;;5050310;28;20084;-66
2021/09/28 02:49:07;;;;;;;4.70;1.30;;;13.60;34.80;;;;;;5051730;28;20037;-67
2021/09/28 02:51:35;;;;;;;2.60;1.23;;;13.40;35.00;;;;;;5050186;28;20292;-66
2021/09/28 02:54:08;;;;;;;3.83;1.27;;;13.40;35.70;;;;;;5045944;28;20049;-65
2021/09/28 02:56:36;;;;;;;3.60;1.30;;;13.40;35.60;;;;;;5046639;28;20052;-67
2021/09/28 02:59:04;;;;;;;4.05;1.58;;;13.40;34.60;;;;;;5048693;28;20053;-67
2021/09/28 03:01:34;;;;;;;5.05;1.70;;;13.40;35.80;;;;;;5052134;28;20055;-67
2021/09/28 03:04:04;;;;;;;4.55;1.48;;;13.50;36.90;;;;;;5049463;28;20047;-67
2021/09/28 03:06:33;;;;;;;4.32;1.40;;;13.40;36.60;;;;;;5045087;28;20067;-64
2021/09/28 03:09:02;;;;;;;3.90;1.20;;;13.40;36.70;;;;;;5048997;28;20068;-67
2021/09/28 03:11:30;;;;;;;3.95;1.20;;;13.40;37.00;;;;;;5041609;28;20546;-67
2021/09/28 03:14:02;;;;;;;4.32;1.40;;;13.30;36.90;;;;;;5039661;28;20040;-66
2021/09/28 03:16:30;;;;;;;4.40;1.50;;;13.40;38.20;;;;;;5045014;28;20150;-67
2021/09/28 03:19:00;;;;;;;2.55;1.20;;;13.40;36.70;;;;;;5048488;28;20489;-67
2021/09/28 03:21:31;;;;;;;4.13;1.60;;;13.40;37.30;;;;;;5051232;28;20103;-67
2021/09/28 03:24:05;;;;;;;4.50;1.40;;;13.40;37.10;;;;;;5045809;28;20040;-67
2021/09/28 03:26:36;;;;;;;4.90;1.27;;;13.40;37.90;;;;;;4967553;28;20124;-67
2021/09/28 03:29:04;;;;;;;3.10;1.48;;;13.30;37.90;;;;;;5009483;28;20092;-67
2021/09/28 03:31:35;;;;;;;4.00;1.35;;;13.30;38.40;;;;;;5043087;28;20450;-66
2021/09/28 03:34:05;;;;;;;1.88;1.50;;;13.10;39.70;;;;;;5032380;28;20394;-67
2021/09/28 03:36:33;;;;;;;5.15;1.77;;;13.20;39.90;;;;;;5037688;28;20075;-67
2021/09/28 03:39:03;;;;;;;5.38;1.58;;;13.10;39.80;;;;;;5030750;28;20102;-67
2021/09/28 03:41:34;;;;;;;4.22;1.73;;;13.10;39.80;;;;;;5040841;28;20041;-66
2021/09/28 03:44:06;;;;;;;5.63;1.75;;;13.00;41.10;;;;;;5034571;28;20104;-66
2021/09/28 03:46:35;;;;;;;3.47;1.70;;;13.10;41.20;;;;;;5037792;28;20887;-66
2021/09/28 03:49:08;;;;;;;2.43;1.37;;;13.10;42.10;;;;;;5042852;28;20055;-66
2021/09/28 03:51:36;;;;;;;4.43;1.65;;;13.00;42.40;;;;;;5040163;28;20061;-67
2021/09/28 03:54:09;;;;;;;6.50;2.00;;;13.10;42.00;;;;;;5036110;28;20048;-66
2021/09/28 03:56:37;;;;;;;3.83;2.25;;;13.20;41.50;;;;;;5039800;28;20103;-67
2021/09/28 03:59:05;;;;;;;4.85;2.13;;;13.10;41.90;;;;;;5044674;28;20044;-67
2021/09/28 04:01:33;;;;;;;4.75;2.53;;;13.00;42.20;;;;;;5039415;28;20045;-65
2021/09/28 04:04:02;;;;;;;5.15;2.60;;;13.00;43.90;;;;;;5033860;28;20046;-67
2021/09/28 04:06:31;;;;;;;8.65;2.72;;;12.90;44.10;;;;;;5043766;28;20052;-67
2021/09/28 04:08:59;;;;;;;6.60;3.00;;;12.80;45.40;;;;;;5036887;28;20075;-67
2021/09/28 04:11:31;;;;;;;6.95;3.20;;;12.90;45.70;;;;;;5037059;28;20045;-67
2021/09/28 04:14:01;;;;;;;5.28;3.60;;;12.80;45.80;;;;;;5023159;28;20147;-67
2021/09/28 04:16:32;;;;;;;6.47;4.00;;;12.90;45.00;;;;;;5038392;28;20044;-67
2021/09/28 04:19:01;;;;;;;5.68;3.95;;;12.80;45.30;;;;;;5036679;28;20053;-66
2021/09/28 04:21:37;;;;;;;8.02;4.20;;;12.80;45.30;;;;;;5048578;28;20043;-66
2021/09/28 04:24:07;;;;;;;8.23;4.40;;;12.80;46.00;;;;;;5037906;28;20041;-66
2021/09/28 04:26:40;;;;;;;11.40;5.45;;;12.70;46.70;;;;;;5030975;28;20111;-66
2021/09/28 04:29:09;;;;;;;7.82;4.70;;;12.70;46.80;;;;;;5043047;28;20076;-66
2021/09/28 04:31:37;;;;;;;9.07;5.32;;;12.70;46.40;;;;;;5045083;28;20045;-64
2021/09/28 04:34:05;;;;;;;10.35;5.72;;;12.60;46.60;;;;;;5038017;28;20053;-65
2021/09/28 04:36:36;;;;;;;9.25;5.45;;;12.60;46.90;;;;;;5036647;28;20691;-65
2021/09/28 04:39:08;;;;;;;6.90;5.53;;;12.60;46.40;;;;;;5041431;28;20051;-67
2021/09/28 04:41:36;;;;;;;7.93;6.28;;;12.60;47.60;;;;;;5034985;28;20330;-64
2021/09/28 04:44:05;;;;;;;7.72;6.20;;;12.60;47.10;;;;;;5037605;28;20045;-66
2021/09/28 04:46:38;;;;;;;12.20;6.32;;;12.50;47.60;;;;;;5039262;28;20045;-66
2021/09/28 04:49:06;;;;;;;10.02;6.72;;;12.50;47.60;;;;;;5038328;28;20049;-67
2021/09/28 04:51:36;;;;;;;10.35;6.53;;;12.40;47.50;;;;;;5042394;28;20107;-66
2021/09/28 04:54:04;;;;;;;11.57;6.90;;;12.40;47.60;;;;;;5039375;28;20047;-65
2021/09/28 04:56:32;;;;;;;12.07;6.80;;;12.30;47.80;;;;;;5037302;28;20508;-66
2021/09/28 04:59:00;;;;;;;9.85;6.93;;;12.30;48.70;;;;;;5041373;28;20038;-67
2021/09/28 05:01:32;;;;;;;12.65;7.60;;;12.40;47.90;;;;;;5041077;28;20043;-67
2021/09/28 05:04:00;;;;;;;11.70;6.82;;;12.30;47.90;;;;;;5037067;28;20115;-65
2021/09/28 05:06:32;;;;;;;11.13;6.97;;;12.20;48.10;;;;;;5036023;28;20047;-66
2021/09/28 05:09:06;;;;;;;11.45;7.05;;;12.20;48.70;;;;;;5037148;28;20083;-67
2021/09/28 05:11:37;;;;;;;10.50;7.25;;;12.20;48.90;;;;;;5040546;28;20045;-66
2021/09/28 05:14:07;;;;;;;14.98;7.55;;;12.20;48.90;;;;;;5038396;28;20033;-69
2021/09/28 05:16:37;;;;;;;10.77;7.55;;;12.10;48.90;;;;;;5037880;28;20041;-69
2021/09/28 05:19:07;;;;;;;14.40;7.93;;;12.10;48.90;;;;;;5041669;28;20041;-69
2021/09/28 05:21:35;;;;;;;11.18;7.15;;;12.10;49.40;;;;;;5037775;28;20582;-68
2021/09/28 05:24:03;;;;;;;10.45;8.45;;;12.10;49.30;;;;;;5027836;28;20048;-68
2021/09/28 05:26:32;;;;;;;12.98;8.55;;;12.10;49.50;;;;;;5031503;28;20164;-69
2021/09/28 05:29:04;;;;;;;15.45;9.35;;;12.10;49.40;;;;;;5036980;28;20045;-70
2021/09/28 05:31:32;;;;;;;13.68;8.35;;;12.20;49.40;;;;;;5031414;28;20065;-69
2021/09/28 05:34:00;;;;;;;15.32;8.20;;;12.20;48.40;;;;;;5029992;28;20066;-69
2021/09/28 05:36:28;;;;;;;11.68;7.93;;;12.20;48.60;;;;;;5035500;28;20040;-69
2021/09/28 05:38:58;;;;;;;11.98;9.30;;;12.30;48.00;;;;;;5028671;28;20060;-69
2021/09/28 05:41:27;;;;;;;20.00;12.88;;;12.30;47.40;;;;;;5026324;28;20045;-69
2021/09/28 05:43:56;;;;;;;18.45;10.52;;;12.30;47.40;;;;;;5031953;28;20138;-70
2021/09/28 05:46:24;;;;;;;14.82;9.10;;;12.20;46.40;;;;;;5032537;28;20044;-69
2021/09/28 05:48:52;;;;;;;13.30;9.23;;;12.30;47.40;;;;;;5031420;28;20051;-69
2021/09/28 05:51:23;;;;;;;13.23;8.80;;;12.30;47.40;;;;;;5032836;28;20054;-69
2021/09/28 05:53:53;;;;;;;16.85;8.57;;;12.30;48.00;;;;;;5031118;28;20049;-69
2021/09/28 05:56:23;;;;;;;15.65;8.55;;;12.30;47.20;;;;;;5012278;28;20463;-69
2021/09/28 05:58:54;;;;;;;13.65;7.95;;;12.30;47.40;;;;;;5034568;28;20057;-69
2021/09/28 06:01:23;;;;;;;12.98;7.57;;;12.40;47.30;;;;;;5038537;28;20215;-68
2021/09/28 06:03:51;;;;;;;12.07;7.85;;;12.50;46.30;;;;;;5037530;28;20048;-68
2021/09/28 06:06:26;;;;;;;17.60;8.43;;;12.50;45.00;;;;;;5032051;28;20061;-69
2021/09/28 06:08:58;;;;;;;13.00;7.65;;;12.60;44.90;;;;;;5033002;28;20056;-69
2021/09/28 06:11:26;;;;;;;11.48;8.70;;;12.70;43.80;;;;;;5040195;28;20096;-69
2021/09/28 06:13:57;;;;;;;11.27;7.32;;;12.60;43.90;;;;;;5029761;28;20045;-68
2021/09/28 06:16:27;;;;;;;10.00;7.22;;;12.50;44.70;;;;;;5031237;28;20587;-68
2021/09/28 06:18:56;;;;;;;16.20;9.40;;;12.50;46.20;;;;;;5001293;28;20044;-69
2021/09/28 06:21:24;;;;;;;16.02;8.07;;;12.60;44.70;;;;;;5037004;28;20789;-69
2021/09/28 06:23:53;;;;;;;13.13;8.35;;;12.60;43.50;;;;;;5037948;28;20055;-68
2021/09/28 06:26:23;;;;;;;12.13;8.25;;;12.60;42.10;;;;;;5022711;28;20100;-70
2021/09/28 06:28:53;;;;;;;19.88;8.23;;;12.70;42.70;;;;;;5031447;28;20045;-69
2021/09/28 06:31:21;;;;;;;13.45;7.45;;;12.80;42.50;;;;;;5039139;28;20050;-69
2021/09/28 06:33:52;;;;;;;9.18;6.93;;;12.70;41.40;;;;;;5035126;28;20107;-68
2021/09/28 06:36:20;;;;;;;14.25;8.40;;;12.80;41.80;;;;;;5034602;28;20059;-68
2021/09/28 06:38:49;;;;;;;11.68;7.88;;;12.90;40.80;;;;;;5037082;28;20050;-69
2021/09/28 06:41:17;;;;;;;23.10;9.80;;;13.10;39.80;;;;;;5039322;28;20652;-70
2021/09/28 06:43:45;;;;;;;13.48;8.23;;;13.10;39.80;;;;;;5032654;28;20106;-69
2021/09/28 06:46:16;;;;;;;11.65;7.95;;;13.10;37.40;;;;;;5032438;28;20501;-68
2021/09/28 06:48:47;;;;;;;14.18;8.40;;;12.80;38.60;;;;;;5041854;28;20080;-69
2021/09/28 06:51:20;;;;;;;13.23;8.52;;;12.70;40.20;;;;;;5037200;28;20046;-69
2021/09/28 06:53:49;;;;;;;11.55;7.95;;;12.90;40.80;;;;;;5033353;28;20132;-68
2021/09/28 06:56:18;;;;;;;13.20;7.80;;;13.10;38.60;;;;;;5029093;28;20069;-69
2021/09/28 06:58:47;;;;;;;12.60;8.15;;;13.20;35.60;;;;;;5036857;28;20077;-68
2021/09/28 07:01:15;;;;;;;15.75;7.93;;;13.10;34.80;;;;;;5035150;28;20132;-69
2021/09/28 07:03:44;;;;;;;13.48;7.95;;;13.10;36.10;;;;;;5030465;28;20052;-69
2021/09/28 07:06:12;;;;;;;11.90;6.55;;;13.30;36.20;;;;;;5034151;28;20581;-69
2021/09/28 07:08:44;;;;;;;11.00;6.78;;;13.40;33.00;;;;;;5037800;28;20045;-69
2021/09/28 07:11:14;;;;;;;10.25;6.90;;;13.30;32.90;;;;;;5031223;28;20041;-69
2021/09/28 07:13:43;;;;;;;8.25;6.65;;;13.60;31.60;;;;;;5030193;28;20156;-69
2021/09/28 07:16:12;;;;;;;11.02;6.60;;;13.80;28.80;;;;;;5038098;28;20071;-68
2021/09/28 07:18:57;;;;;;;17.48;6.47;;;13.40;28.90;;;;;;5037275;28;20055;-68
2021/09/28 07:21:25;;;;;;;9.75;6.03;;;13.40;32.00;;;;;;5034942;28;20045;-68
2021/09/28 07:23:58;;;;;;;11.10;6.70;;;13.40;29.30;;;;;;5034109;28;20049;-69
2021/09/28 07:26:26;;;;;;;11.95;6.72;;;13.40;29.60;;;;;;5035091;28;20126;-69
2021/09/28 07:28:54;;;;;;;10.15;6.63;;;13.30;28.90;;;;;;5035228;28;20045;-69
2021/09/28 07:31:23;;;;;;;9.95;6.63;;;13.10;30.00;;;;;;5033263;28;20041;-69
2021/09/28 07:33:52;;;;;;;10.60;6.43;;;13.20;31.00;;;;;;5036902;28;20308;-68
2021/09/28 07:36:21;;;;;;;9.57;6.50;;;13.30;28.30;;;;;;5034459;28;20049;-69
2021/09/28 07:38:49;;;;;;;8.90;5.80;;;13.30;30.00;;;;;;5032323;28;20073;-68
2021/09/28 07:41:19;;;;;;;12.90;6.75;;;13.70;30.00;;;;;;5038265;28;20080;-68
2021/09/28 07:43:49;;;;;;;10.50;6.53;;;13.80;27.10;;;;;;5033560;28;20095;-69
2021/09/28 07:46:17;;;;;;;8.85;6.28;;;14.00;25.10;;;;;;5025411;28;20053;-68
2021/09/28 07:48:51;;;;;;;10.52;6.80;;;13.90;24.00;;;;;;5038854;28;20467;-69
2021/09/28 07:51:27;;;;;;;8.80;6.15;;;13.90;24.00;;;;;;5038508;28;20526;-69
2021/09/28 07:53:55;;;;;;;14.07;6.38;;;14.00;22.50;;;;;;5032277;28;20140;-69
2021/09/28 07:56:31;;;;;;;9.00;5.15;;;14.10;21.50;;;;;;5033161;28;20388;-70
2021/09/28 07:59:07;;;;;;;9.13;5.85;;;13.80;21.50;;;;;;5035439;28;20516;-69
2021/09/28 08:01:39;;;;;;;7.82;5.03;;;13.90;21.20;;;;;;5038482;28;20049;-68
2021/09/28 08:04:08;;;;;;;14.27;6.15;;;14.10;18.60;;;;;;5033105;28;20048;-68
2021/09/28 08:06:36;;;;;;;9.88;6.10;;;14.10;17.80;;;;;;5026409;28;20566;-70
2021/09/28 08:09:07;;;;;;;10.43;5.70;;;14.30;15.90;;;;;;5038508;28;20045;-69
2021/09/28 08:11:41;;;;;;;7.32;5.55;;;14.20;17.00;;;;;;5033503;28;20043;-68
2021/09/28 08:14:09;;;;;;;8.65;5.80;;;14.20;16.70;;;;;;5029775;28;20136;-70
2021/09/28 08:16:44;;;;;;;10.40;5.40;;;14.30;16.80;;;;;;5037600;28;20037;-71
2021/09/28 08:19:12;;;;;;;8.23;5.40;;;14.30;16.00;;;;;;5031957;28;20141;-69
2021/09/28 08:21:52;;;;;;;9.30;5.50;;;14.10;17.80;;;;;;5032553;28;20377;-68
2021/09/28 08:24:22;;;;;;;9.73;5.05;;;14.10;16.70;;;;;;5014579;28;20143;-69
2021/09/28 08:29:43;;;;;;;8.68;5.22;;;13.90;15.90;;;;;;5034195;28;20586;-68
2021/09/28 08:32:12;;;;;;;7.10;5.30;;;14.00;15.50;;;;;;5030434;28;20122;-69
2021/09/28 08:34:40;;;;;;;8.32;5.20;;;13.90;15.90;;;;;;5027090;28;20136;-69
2021/09/28 08:37:28;;;;;;;10.07;5.55;;;14.10;14.50;;;;;;5036522;28;20048;-69
2021/09/28 08:40:01;;;;;;;10.30;5.85;;;14.10;16.10;;;;;;5015304;28;20048;-68
2021/09/28 08:42:33;;;;;;;10.48;5.60;;;14.30;16.80;;;;;;5034054;28;20156;-69
2021/09/28 08:45:01;;;;;;;9.30;5.68;;;14.10;17.00;;;;;;5034538;28;20045;-69
2021/09/28 08:47:39;;;;;;;8.77;5.57;;;14.30;16.10;;;;;;5029629;28;20067;-69
2021/09/28 08:50:15;;;;;;;15.02;5.60;;;14.30;14.30;;;;;;5012582;28;20500;-69
2021/09/28 08:52:50;;;;;;;7.50;5.47;;;14.40;14.40;;;;;;5026476;28;20123;-70
2021/09/28 08:55:21;;;;;;;11.38;6.13;;;14.40;13.00;;;;;;5032872;28;21086;-69
2021/09/28 08:58:12;;;;;;;9.88;6.28;;;14.70;12.90;;;;;;5034867;28;20419;-68
2021/09/28 09:00:43;;;;;;;9.93;6.30;;;14.70;13.20;;;;;;5031644;28;20056;-68
2021/09/28 09:03:26;;;;;;;11.18;6.47;;;14.60;13.00;;;;;;5030891;28;20045;-69
2021/09/28 09:05:57;;;;;;;15.80;6.05;;;14.60;12.10;;;;;;5032091;28;20068;-69
2021/09/28 09:08:26;;;;;;;10.07;5.90;;;14.70;11.80;;;;;;5027093;28;20115;-69
2021/09/28 09:11:03;;;;;;;7.40;5.30;;;14.60;11.20;;;;;;5031858;28;20133;-68
2021/09/28 09:13:39;;;;;;;7.93;5.05;;;15.00;11.20;;;;;;5029081;28;20534;-69
2021/09/28 09:16:13;;;;;;;;;;;15.20;7.60;;;;;;5035074;28;20294;-69
2021/09/28 09:18:44;;;;;;;9.25;5.40;;;15.10;7.10;;;;;;5031612;28;19924;-69
2021/09/28 09:21:15;;;;;;;8.35;5.28;;;14.80;5.80;;;;;;5030523;28;20045;-69
2021/09/28 09:23:44;;;;;;;10.05;4.78;;;15.10;5.80;;;;;;5034710;28;20523;-69
2021/09/28 09:26:15;;;;;;;8.38;4.90;;;15.30;2.70;;;;;;5026789;28;20588;-69
2021/09/28 09:28:47;;;;;;;9.98;4.80;;;15.00;4.80;;;;;;5029360;28;20132;-69
2021/09/28 09:31:25;;;;;;;11.13;5.63;;;14.80;5.10;;;;;;5025638;28;20045;-69
2021/09/28 09:34:07;;;;;;;8.70;5.20;;;15.00;4.10;;;;;;5040817;28;20076;-69
2021/09/28 09:36:38;;;;;;;10.15;4.53;;;15.10;3.80;;;;;;5033510;28;20049;-69
2021/09/28 09:39:11;;;;;;;8.88;5.30;;;14.70;4.10;;;;;;5036503;28;20045;-69
2021/09/28 09:41:42;;;;;;;10.73;5.03;;;15.40;2.00;;;;;;5043408;28;20036;-69
2021/09/28 09:44:15;;;;;;;8.25;4.78;;;15.90;1.00;;;;;;5033396;28;20041;-69
2021/09/28 09:46:47;;;;;;;8.20;4.63;;;15.40;1.00;;;;;;5029763;28;20072;-68
2021/09/28 09:49:21;;;;;;;8.70;4.82;;;15.60;1.00;;;;;;5039219;28;20052;-69
2021/09/28 09:51:53;;;;;;;9.02;4.68;;;15.90;1.00;;;;;;5039230;28;20038;-67
2021/09/28 09:54:30;;;;;;;9.88;4.78;;;15.80;1.00;;;;;;5031034;28;20044;-69
2021/09/28 09:57:05;;;;;;;10.73;4.88;;;15.50;1.00;;;;;;5033693;28;20048;-69
2021/09/28 09:59:40;;;;;;;17.45;4.75;;;15.50;1.00;;;;;;5036185;28;20052;-69
2021/09/28 10:02:09;;;;;;;10.38;6.18;;;15.50;1.00;;;;;;5037947;28;20037;-69
2021/09/28 10:04:38;;;;;;;8.35;4.97;;;15.90;1.00;;;;;;5031435;28;20526;-69
2021/09/28 10:07:13;;;;;;;9.80;5.45;;;15.80;1.00;;;;;;5033182;28;20076;-68
2021/09/28 10:09:47;;;;;;;9.30;5.50;;;16.00;1.00;;;;;;5024057;28;20045;-69
2021/09/28 10:12:15;;;;;;;;;;;16.10;1.00;;;;;;5033509;28;20051;-68
2021/09/28 10:14:46;;;;;;;10.70;4.55;;;15.30;1.00;;;;;;5031527;28;20179;-69
2021/09/28 10:17:43;;;;;;;11.40;4.63;;;15.60;1.00;;;;;;5037853;28;20520;-69
2021/09/28 10:20:25;;;;;;;11.43;5.65;;;15.80;1.00;;;;;;5018749;28;20048;-70
2021/09/28 10:22:55;;;;;;;7.65;4.60;;;15.70;1.00;;;;;;5030760;28;20118;-68
2021/09/28 10:25:36;;;;;;;10.02;6.38;;;15.80;1.00;;;;;;5034592;28;20107;-68
2021/09/28 10:28:27;;;;;;;13.18;5.85;;;15.70;1.00;;;;;;5033086;28;20041;-69
2021/09/28 10:30:56;;;;;;;8.80;5.70;;;15.50;1.00;;;;;;5039773;28;20058;-69
2021/09/28 10:33:33;;;;;;;11.30;6.30;;;15.50;1.00;;;;;;5021890;28;20409;-71
2021/09/28 10:36:18;;;;;;;9.38;5.45;;;15.60;1.00;;;;;;5024982;28;20056;-68
2021/09/28 10:38:54;;;;;;;11.52;5.15;;;15.80;1.00;;;;;;5031926;28;20051;-69
2021/09/28 10:41:52;;;;;;;8.98;5.30;;;15.90;1.00;;;;;;5038136;28;20068;-69
2021/09/28 10:44:47;;;;;;;8.55;5.57;;;16.30;1.00;;;;;;4994714;28;20064;-70
2021/09/28 10:47:53;;;;;;;9.38;5.13;;;16.40;1.00;;;;;;5034314;28;20405;-69
2021/09/28 10:50:31;;;;;;;7.30;4.50;;;16.40;1.00;;;;;;5031380;28;20090;-68
2021/09/28 10:53:02;;;;;;;8.55;5.00;;;16.40;1.00;;;;;;5011830;28;20436;-69
2021/09/28 10:55:41;;;;;;;6.55;4.53;;;16.70;1.00;;;;;;5031588;28;20157;-69
2021/09/28 10:58:22;;;;;;;7.67;4.33;;;16.70;1.00;;;;;;5035449;28;20055;-69
2021/09/28 11:01:12;;;;;;;9.93;5.60;;;16.60;1.00;;;;;;5035705;28;20464;-68
2021/09/28 11:04:04;;;;;;;9.75;4.75;;;16.60;1.00;;;;;;5009655;28;20081;-69
2021/09/28 11:06:50;;;;;;;8.85;5.25;;;16.90;1.00;;;;;;5027663;28;20511;-69
2021/09/28 11:09:20;;;;;;;6.35;5.25;;;17.10;1.00;;;;;;5034149;28;20138;-69
2021/09/28 11:11:56;;;;;;;8.98;5.80;;;16.70;1.00;;;;;;5016105;28;20041;-68
2021/09/28 11:14:25;;;;;;;8.70;5.65;;;17.10;1.00;;;;;;5033638;28;20137;-69
2021/09/28 11:16:57;;;;;;;11.63;6.32;;;17.60;1.00;;;;;;5035582;28;20069;-68
2021/09/28 11:19:38;;;;;;;6.22;5.63;;;17.40;1.00;;;;;;5033881;28;20511;-69
2021/09/28 11:22:07;;;;;;;7.82;6.05;;;17.10;1.00;;;;;;5026569;28;20096;-68
2021/09/28 11:24:37;;;;;;;9.27;5.88;;;17.60;1.00;;;;;;5029405;28;20052;-68
2021/09/28 11:27:11;;;;;;;10.00;6.30;;;17.40;1.00;;;;;;5003619;28;20084;-69
2021/09/28 11:29:41;;;;;;;8.27;5.65;;;17.40;1.00;;;;;;5025363;28;20260;-69
2021/09/28 11:32:12;;;;;;;7.53;6.53;;;16.70;1.00;;;;;;5033419;28;20087;-69
2021/09/28 11:34:43;;;;;;;8.50;5.88;;;16.70;1.00;;;;;;5035943;28;20056;-69
2021/09/28 11:37:25;;;;;;;9.27;6.57;;;16.60;1.00;;;;;;5031630;28;20068;-68
2021/09/28 11:39:54;;;;;;;9.40;6.15;;;16.50;1.00;;;;;;5030483;28;20558;-68
2021/09/28 11:42:31;;;;;;;8.02;6.47;;;16.70;1.00;;;;;;5033006;28;20086;-68
2021/09/28 11:45:04;;;;;;;9.65;6.50;;;16.90;1.00;;;;;;5035944;28;20045;-69
2021/09/28 11:47:40;;;;;;;12.82;6.50;;;17.00;1.00;;;;;;5031200;28;20530;-68
2021/09/28 11:50:11;;;;;;;11.02;6.53;;;16.90;1.00;;;;;;5031443;28;20483;-68
2021/09/28 11:52:40;;;;;;;9.85;6.68;;;17.00;1.00;;;;;;5027875;28;20562;-69
2021/09/28 11:55:09;;;;;;;9.18;6.40;;;17.00;1.00;;;;;;5035062;28;20040;-69
2021/09/28 11:57:43;;;;;;;9.57;6.18;;;17.00;1.00;;;;;;5025921;28;20587;-69
2021/09/28 12:00:16;;;;;;;9.57;6.60;;;17.40;1.00;;;;;;5018737;28;20059;-69
2021/09/28 12:02:50;;;;;;;9.57;6.53;;;17.40;1.00;;;;;;5037524;28;20060;-69
2021/09/28 12:07:58;;;;;;;10.80;6.55;;;17.10;1.00;;;;;;5032228;28;20055;-68
2021/09/28 12:10:34;;;;;;;8.60;5.57;;;18.00;1.00;;;;;;5034354;28;20061;-68
2021/09/28 12:13:35;;;;;;;11.13;6.28;;;18.10;1.00;;;;;;5014292;28;20045;-68
2021/09/28 12:16:08;;;;;;;8.77;6.10;;;17.80;1.00;;;;;;5020003;28;20036;-68
2021/09/28 12:18:37;;;;;;;11.13;6.45;;;18.30;1.00;;;;;;5029775;28;20795;-68
2021/09/28 12:21:27;;;;;;;9.07;6.88;;;18.30;1.00;;;;;;5029538;28;20297;-69
2021/09/28 12:24:18;;;;;;;7.63;5.60;;;18.50;1.00;;;;;;5031884;28;20045;-68
2021/09/28 12:26:51;;;;;;;11.00;5.95;;;17.80;1.00;;;;;;5033055;28;20179;-68
2021/09/28 12:29:22;;;;;;;7.40;5.32;;;18.10;1.00;;;;;;5031679;28;20052;-69
2021/09/28 12:31:55;;;;;;;7.32;5.40;;;18.20;1.00;;;;;;5027400;28;20527;-69
2021/09/28 12:34:25;;;;;;;8.60;5.60;;;18.00;1.00;;;;;;5022500;28;20049;-68
2021/09/28 12:37:02;;;;;;;7.72;5.47;;;18.50;1.00;;;;;;5031988;28;20516;-69
2021/09/28 12:39:31;;;;;;;9.15;5.72;;;18.70;1.00;;;;;;5028734;28;20045;-68
2021/09/28 12:42:02;;;;;;;7.45;5.32;;;18.50;1.00;;;;;;5030887;28;20053;-69
2021/09/28 12:44:37;;;;;;;11.38;6.35;;;18.50;1.00;;;;;;5036749;28;20120;-69
2021/09/28 12:47:30;;;;;;;9.75;5.90;;;18.30;1.00;;;;;;5021918;28;20060;-69
2021/09/28 12:49:59;;;;;;;8.52;5.72;;;18.00;1.00;;;;;;5030241;28;20110;-67
2021/09/28 12:52:29;;;;;;;8.60;5.70;;;17.90;1.00;;;;;;5033030;28;20159;-68
2021/09/28 12:54:57;;;;;;;10.88;5.88;;;18.20;1.00;;;;;;5028468;28;20064;-69
2021/09/28 12:57:32;;;;;;;8.32;5.55;;;18.20;1.00;;;;;;5009805;28;20060;-68
2021/09/28 13:00:00;;;;;;;6.07;5.22;;;18.00;1.00;;;;;;5029876;28;20053;-69
2021/09/28 13:02:28;;;;;;;11.65;5.78;;;18.10;1.00;;;;;;5031179;28;20076;-69
2021/09/28 13:04:58;;;;;;;8.65;4.93;;;18.10;1.00;;;;;;5034014;28;20435;-68
2021/09/28 13:07:31;;;;;;;9.57;5.20;;;18.20;1.00;;;;;;5032717;28;20052;-69
2021/09/28 13:09:59;;;;;;;8.05;5.50;;;17.70;1.00;;;;;;5036371;28;20072;-70
2021/09/28 13:12:27;;;;;;;8.48;5.18;;;17.80;1.00;;;;;;5026833;28;20538;-68
2021/09/28 13:15:00;;;;;;;7.28;4.70;;;17.70;1.00;;;;;;5007597;28;20419;-69
2021/09/28 13:17:32;;;;;;;8.50;4.50;;;17.80;1.00;;;;;;5031017;28;20046;-69